Time;durP1;ratioP1;P1;durP2;ratioP2;P2;SDS_P1;SDS_P2;PMS_P1;PMS_P2;Temp;Humidity;BMP_temperature;BMP_pressure;BME280_temperature;BME280_humidity;BME280_pressure;Samples;Min_cycle;Max_cycle;Signal;HPM_P1;HPM_P2
2022/11/27 00:01:44;;;;;;;;;4.33;4.33;;;;;21.28;49.07;102074.44;5037462;28;45412;-73
2022/11/27 00:04:11;;;;;;;;;4.33;2.33;;;;;21.33;48.59;102078.44;5037833;28;45445;-73
2022/11/27 00:06:38;;;;;;;;;3.00;3.00;;;;;21.33;48.39;102084.56;5037762;28;45431;-72
2022/11/27 00:09:06;;;;;;;;;2.33;2.33;;;;;21.33;48.25;102084.56;5037415;28;46082;-73
2022/11/27 00:11:32;;;;;;;;;4.00;4.00;;;;;21.34;48.70;102086.22;5037316;28;45352;-73
2022/11/27 00:13:58;;;;;;;;;2.00;2.00;;;;;21.34;48.45;102091.50;5037379;28;45513;-73
2022/11/27 00:16:25;;;;;;;;;4.33;4.00;;;;;21.34;48.47;102080.94;5037541;28;45479;-73
2022/11/27 00:18:51;;;;;;;;;3.00;2.67;;;;;21.36;48.54;102091.38;5037213;28;45357;-73
2022/11/27 00:21:23;;;;;;;;;4.00;3.00;;;;;21.35;47.94;102081.75;5037362;28;45291;-74
2022/11/27 00:23:49;;;;;;;;;4.33;3.00;;;;;21.32;48.12;102076.75;5037295;28;45335;-73
2022/11/27 00:26:14;;;;;;;;;4.33;3.00;;;;;21.34;47.69;102078.28;5036507;28;45353;-73
2022/11/27 00:28:40;;;;;;;;;3.00;2.00;;;;;21.35;47.55;102077.31;5036614;28;46147;-73
2022/11/27 00:31:11;;;;;;;;;5.00;3.00;;;;;21.34;47.63;102065.03;5037317;28;45410;-73
2022/11/27 00:33:36;;;;;;;;;0.33;0.33;;;;;21.33;47.81;102075.78;5037412;28;45343;-73
2022/11/27 00:36:07;;;;;;;;;2.33;2.33;;;;;21.34;47.78;102066.88;5019411;28;45474;-73
2022/11/27 00:38:33;;;;;;;;;6.00;3.00;;;;;21.32;47.73;102064.34;5036683;28;46222;-74
2022/11/27 00:41:08;;;;;;;;;3.00;3.00;;;;;21.32;47.39;102077.59;5037123;28;45423;-73
2022/11/27 00:43:35;;;;;;;;;2.67;2.67;;;;;21.32;47.55;102060.88;5037113;28;45537;-73
2022/11/27 00:46:01;;;;;;;;;3.00;3.00;;;;;21.31;47.30;102057.41;5037221;28;45408;-73
2022/11/27 00:48:26;;;;;;;;;4.67;4.67;;;;;21.30;47.41;102055.72;5036909;28;46098;-71
2022/11/27 00:50:51;;;;;;;;;1.00;1.00;;;;;21.30;47.85;102061.03;5036992;28;45311;-73
2022/11/27 00:53:17;;;;;;;;;4.33;3.67;;;;;21.21;47.42;102049.50;5036611;28;45378;-74
2022/11/27 00:55:45;;;;;;;;;5.33;2.00;;;;;21.27;47.57;102046.28;5036984;28;45612;-73
2022/11/27 00:58:10;;;;;;;;;3.67;3.00;;;;;21.21;47.19;102036.25;5036835;28;45570;-73
2022/11/27 01:00:36;;;;;;;;;3.00;3.00;;;;;21.25;47.34;102042.09;5036318;28;48907;-74
2022/11/27 01:03:01;;;;;;;;;4.33;4.33;;;;;21.24;47.32;102051.84;5036928;28;45763;-73
2022/11/27 01:05:26;;;;;;;;;3.00;3.00;;;;;21.22;47.69;102045.88;5036863;28;45446;-72
2022/11/27 01:07:51;;;;;;;;;1.00;1.00;;;;;21.20;47.20;102041.72;5018453;28;46232;-72
2022/11/27 01:10:17;;;;;;;;;5.33;4.00;;;;;21.21;47.33;102060.06;5036375;28;47474;-73
2022/11/27 01:12:42;;;;;;;;;3.00;3.00;;;;;21.20;47.73;102058.44;5036706;28;45392;-71
2022/11/27 01:15:08;;;;;;;;;3.00;2.00;;;;;21.20;47.65;102054.94;5036375;28;50112;-73
2022/11/27 01:17:33;;;;;;;;;2.00;1.00;;;;;21.18;47.54;102055.91;5036469;28;46330;-73
2022/11/27 01:19:59;;;;;;;;;2.67;2.00;;;;;21.17;47.79;102048.97;5036392;28;45375;-73
2022/11/27 01:22:24;;;;;;;;;3.33;3.33;;;;;21.18;47.44;102044.50;5036233;28;45343;-73
2022/11/27 01:24:49;;;;;;;;;3.00;3.00;;;;;21.14;47.59;102046.59;5036628;28;45371;-71
2022/11/27 01:27:15;;;;;;;;;2.00;2.00;;;;;21.16;47.20;102042.00;5036428;28;46125;-71
2022/11/27 01:29:40;;;;;;;;;3.00;2.00;;;;;21.07;47.57;102019.06;5036161;28;45362;-73
2022/11/27 01:32:05;;;;;;;;;4.00;4.00;;;;;21.16;47.54;102035.84;5036564;28;45320;-72
2022/11/27 01:34:30;;;;;;;;;2.33;2.00;;;;;21.12;47.54;102024.75;5036480;28;45389;-73
2022/11/27 01:36:56;;;;;;;;;2.33;2.00;;;;;21.15;47.44;102031.56;5035950;28;45965;-73
2022/11/27 01:39:23;;;;;;;;;4.00;3.00;;;;;21.14;46.99;102016.66;5035833;28;45505;-72
2022/11/27 01:41:49;;;;;;;;;4.33;3.00;;;;;21.10;47.30;102008.19;5036222;28;45417;-72
2022/11/27 01:44:23;;;;;;;;;2.00;2.00;;;;;21.11;47.30;102001.91;5036170;28;45451;-74
2022/11/27 01:47:03;;;;;;;;;3.67;2.67;;;;;21.11;47.15;101999.25;5036079;28;46169;-73
2022/11/27 01:49:41;;;;;;;;;1.33;1.33;;;;;21.11;47.25;101993.13;5035944;28;45597;-73
2022/11/27 01:52:12;;;;;;;;;3.33;3.00;;;;;21.10;47.62;101996.75;5035800;28;45375;-73
2022/11/27 01:54:44;;;;;;;;;3.67;3.67;;;;;21.10;47.13;101987.00;5035858;28;45342;-72
2022/11/27 01:57:16;;;;;;;;;2.00;2.00;;;;;21.10;47.06;101988.81;5035855;28;45291;-72
2022/11/27 01:59:42;;;;;;;;;2.67;2.67;;;;;21.06;47.09;101982.97;5035729;28;45264;-74
2022/11/27 02:02:08;;;;;;;;;2.67;2.67;;;;;21.09;46.94;101997.72;5035955;28;45363;-74
2022/11/27 02:04:33;;;;;;;;;2.67;2.67;;;;;21.11;46.88;101979.88;5035863;28;45331;-73
2022/11/27 02:06:59;;;;;;;;;3.67;3.67;;;;;21.11;46.88;101991.31;5017458;28;45990;-73
2022/11/27 02:09:27;;;;;;;;;3.33;3.33;;;;;21.12;46.69;101981.56;5035710;28;45578;-73
2022/11/27 02:11:59;;;;;;;;;4.00;3.00;;;;;21.11;46.84;101980.72;5036106;28;45376;-73
2022/11/27 02:14:36;;;;;;;;;4.00;2.00;;;;;21.13;46.73;101977.94;5035510;28;45362;-73
2022/11/27 02:17:14;;;;;;;;;6.00;3.00;;;;;21.13;47.00;101977.94;5035656;28;45442;-73
2022/11/27 02:19:54;;;;;;;;;3.00;3.00;;;;;21.12;46.67;101979.75;5035654;28;45411;-73
2022/11/27 02:22:32;;;;;;;;;3.00;3.00;;;;;21.12;46.82;101977.09;5035696;28;45242;-73
2022/11/27 02:25:32;;;;;;;;;2.00;2.00;;;;;21.12;46.80;101976.28;5035778;28;45345;-73
2022/11/27 02:28:22;;;;;;;;;5.00;4.00;;;;;21.11;46.86;101978.06;5035437;28;46255;-73
2022/11/27 02:31:02;;;;;;;;;4.33;3.67;;;;;21.10;47.00;101976.44;5035214;28;45446;-73
2022/11/27 02:33:31;;;;;;;;;2.67;2.67;;;;;21.11;46.76;101985.19;5035519;28;45492;-73
2022/11/27 02:36:06;;;;;;;;;3.00;3.00;;;;;21.09;46.99;101948.28;5035157;28;45514;-73
2022/11/27 02:38:39;;;;;;;;;3.33;2.00;;;;;21.09;46.62;101971.25;5035335;28;46363;-73
2022/11/27 02:41:21;;;;;;;;;3.67;2.00;;;;;21.09;46.67;101963.31;5035298;28;45413;-73
2022/11/27 02:43:49;;;;;;;;;2.67;2.67;;;;;21.06;46.81;101944.13;5035501;28;45391;-73
2022/11/27 02:46:16;;;;;;;;;4.00;2.67;;;;;21.06;46.97;101946.78;5035385;28;45303;-73
2022/11/27 02:48:46;;;;;;;;;2.67;2.67;;;;;21.07;46.84;101931.72;5035268;28;45464;-73
2022/11/27 02:51:16;;;;;;;;;3.00;2.67;;;;;21.00;46.81;101928.78;5037451;28;45264;-73
2022/11/27 02:53:52;;;;;;;;;5.67;3.00;;;;;21.07;46.57;101937.03;5038779;28;45370;-74
2022/11/27 02:56:22;;;;;;;;;5.00;3.33;;;;;21.06;46.77;101933.53;5038807;28;45315;-72
2022/11/27 02:58:49;;;;;;;;;3.00;3.00;;;;;21.06;46.55;101930.06;5038491;28;45415;-74
2022/11/27 03:01:17;;;;;;;;;2.00;2.00;;;;;21.06;46.73;101924.75;5038659;28;45296;-73
2022/11/27 03:03:46;;;;;;;;;3.67;3.00;;;;;20.95;46.92;101916.00;5038274;28;45398;-73
2022/11/27 03:06:18;;;;;;;;;2.00;2.00;;;;;21.06;46.49;101924.75;5038648;28;45377;-73
2022/11/27 03:08:55;;;;;;;;;2.67;2.67;;;;;21.06;46.86;101922.13;5038410;28;47130;-73
2022/11/27 03:11:21;;;;;;;;;2.00;2.00;;;;;21.06;46.78;101907.06;5038369;28;45470;-73
2022/11/27 03:13:52;;;;;;;;;3.33;3.33;;;;;20.92;46.83;101887.19;5038404;28;45449;-73
2022/11/27 03:16:35;;;;;;;;;5.00;3.00;;;;;21.03;46.64;101901.25;5038737;28;45402;-73
2022/11/27 03:19:25;;;;;;;;;0.00;0.00;;;;;21.04;46.44;101909.03;5037995;28;45351;-73
2022/11/27 03:21:59;;;;;;;;;4.00;2.67;;;;;21.03;46.60;101901.25;5038351;28;45452;-73
2022/11/27 03:24:25;;;;;;;;;3.33;3.00;;;;;21.02;46.66;101899.59;5038490;28;45387;-73
2022/11/27 03:26:51;;;;;;;;;3.00;2.00;;;;;21.02;47.03;101895.13;5038325;28;45390;-73
2022/11/27 03:29:22;;;;;;;;;2.33;2.33;;;;;21.04;46.56;101887.03;5038139;28;47072;-73
2022/11/27 03:31:48;;;;;;;;;4.00;2.00;;;;;21.03;46.90;101885.38;5038614;28;45473;-74
2022/11/27 03:34:15;;;;;;;;;2.00;2.00;;;;;21.03;46.69;101885.38;5037805;28;45415;-73
2022/11/27 03:36:40;;;;;;;;;2.00;2.00;;;;;21.02;46.79;101875.78;5038226;28;45411;-73
2022/11/27 03:39:06;;;;;;;;;4.33;2.33;;;;;21.02;46.63;101870.47;5038041;28;47021;-73
2022/11/27 03:41:46;;;;;;;;;3.33;2.00;;;;;21.03;46.43;101865.03;5038047;28;45442;-73
2022/11/27 03:44:19;;;;;;;;;4.00;2.33;;;;;21.00;46.43;101857.34;5038144;28;45434;-73
2022/11/27 03:46:53;;;;;;;;;3.67;3.67;;;;;20.87;46.63;101838.38;5037727;28;45402;-74
2022/11/27 03:49:34;;;;;;;;;2.00;2.00;;;;;21.02;46.56;101873.13;5020037;28;46225;-73
2022/11/27 03:52:19;;;;;;;;;2.33;2.33;;;;;20.54;46.42;101802.63;5037896;28;45401;-73
2022/11/27 03:54:47;;;;;;;;;2.00;2.00;;;;;21.02;46.65;101867.84;5037736;28;45418;-73
2022/11/27 03:57:28;;;;;;;;;3.00;3.00;;;;;21.03;46.36;101869.47;5037822;28;45462;-73
2022/11/27 03:59:57;;;;;;;;;2.00;2.00;;;;;21.03;46.13;101867.69;5037491;28;46252;-73
2022/11/27 04:02:30;;;;;;;;;2.67;2.67;;;;;20.96;46.57;101856.00;5037105;28;45375;-73
2022/11/27 04:04:56;;;;;;;;;2.33;1.00;;;;;21.03;46.47;101862.38;5037830;28;45327;-73
2022/11/27 04:07:22;;;;;;;;;3.00;3.00;;;;;20.96;46.50;101848.91;5037575;28;45416;-73
2022/11/27 04:09:47;;;;;;;;;3.00;1.33;;;;;21.00;46.27;101854.72;5037484;28;46159;-73
2022/11/27 04:12:12;;;;;;;;;2.00;2.00;;;;;21.03;46.36;101846.50;5037427;28;47994;-73
2022/11/27 04:14:37;;;;;;;;;2.67;2.67;;;;;21.03;46.25;101846.50;5037461;28;45291;-73
2022/11/27 04:17:03;;;;;;;;;1.00;1.00;;;;;20.89;46.15;101831.97;5037502;28;45373;-73
2022/11/27 04:19:28;;;;;;;;;3.00;2.00;;;;;21.04;46.29;101844.69;5037446;28;45422;-73
2022/11/27 04:21:53;;;;;;;;;1.00;1.00;;;;;21.03;46.14;101838.56;5037581;28;45364;-74
2022/11/27 04:24:19;;;;;;;;;3.00;2.00;;;;;21.03;46.25;101838.56;5037581;28;45153;-73
2022/11/27 04:26:44;;;;;;;;;2.00;2.00;;;;;21.03;46.26;101830.63;5037606;28;45406;-73
2022/11/27 04:29:09;;;;;;;;;2.33;2.33;;;;;21.04;46.43;101845.53;5037431;28;45344;-72
2022/11/27 04:31:35;;;;;;;;;6.00;3.00;;;;;21.04;46.28;101842.91;5036897;28;45336;-73
2022/11/27 04:34:00;;;;;;;;;4.00;3.00;;;;;21.04;46.51;101831.47;5037539;28;45287;-73
2022/11/27 04:36:25;;;;;;;;;3.00;3.00;;;;;21.04;46.11;101829.66;5037450;28;45296;-73
2022/11/27 04:38:50;;;;;;;;;2.00;2.00;;;;;21.04;46.41;101831.47;5037187;28;47216;-73
2022/11/27 04:41:16;;;;;;;;;2.33;2.33;;;;;21.04;46.42;101827.03;5036990;28;52434;-73
2022/11/27 04:43:41;;;;;;;;;3.33;3.00;;;;;20.93;45.96;101809.50;5037201;28;45369;-73
2022/11/27 04:46:06;;;;;;;;;2.00;2.00;;;;;21.05;46.53;101823.38;5036958;28;45236;-73
2022/11/27 04:48:32;;;;;;;;;2.33;2.00;;;;;21.03;46.40;101824.50;5037077;28;45224;-73
2022/11/27 04:50:57;;;;;;;;;2.67;1.67;;;;;21.03;46.33;101809.47;5036950;28;45366;-73
2022/11/27 04:53:22;;;;;;;;;4.00;2.00;;;;;21.04;46.25;101815.59;5036925;28;45371;-73
2022/11/27 04:55:50;;;;;;;;;2.00;2.00;;;;;21.04;46.40;101807.66;5037065;28;45435;-73
2022/11/27 04:58:15;;;;;;;;;3.00;2.33;;;;;21.03;46.13;101800.69;5036758;28;45394;-73
2022/11/27 05:00:40;;;;;;;;;2.00;1.00;;;;;21.03;46.28;101806.81;5036388;28;45420;-73
2022/11/27 05:03:06;;;;;;;;;5.00;3.00;;;;;21.02;46.00;101805.19;5037041;28;45345;-73
2022/11/27 05:05:32;;;;;;;;;3.00;2.00;;;;;21.02;45.92;101796.41;5036933;28;45474;-73
2022/11/27 05:07:57;;;;;;;;;2.00;2.00;;;;;21.02;46.22;101784.00;5036514;28;46879;-73
2022/11/27 05:10:22;;;;;;;;;3.00;3.00;;;;;21.01;46.27;101792.91;5036590;28;47617;-73
2022/11/27 05:12:47;;;;;;;;;2.33;2.33;;;;;21.01;46.53;101787.63;5036121;28;45875;-73
2022/11/27 05:15:13;;;;;;;;;0.00;0.00;;;;;21.00;46.36;101785.91;5036320;28;45402;-74
2022/11/27 05:17:38;;;;;;;;;3.33;3.00;;;;;21.00;46.12;101779.81;5036750;28;45409;-73
2022/11/27 05:20:04;;;;;;;;;2.33;2.00;;;;;21.00;46.26;101780.63;5036631;28;45393;-73
2022/11/27 05:22:30;;;;;;;;;2.67;2.67;;;;;20.90;46.39;101764.00;5036616;28;45280;-73
2022/11/27 05:24:55;;;;;;;;;2.33;2.33;;;;;20.99;46.07;101764.91;5036611;28;45465;-74
2022/11/27 05:27:20;;;;;;;;;3.00;1.00;;;;;20.98;46.24;101779.94;5018533;28;47108;-73
2022/11/27 05:29:46;;;;;;;;;3.67;2.67;;;;;20.99;46.14;101778.16;5036106;28;45335;-73
2022/11/27 05:32:11;;;;;;;;;2.67;2.00;;;;;20.98;46.16;101785.25;5036410;28;45683;-72
2022/11/27 05:34:36;;;;;;;;;3.00;3.00;;;;;20.99;46.02;101771.03;5036494;28;45398;-73
2022/11/27 05:37:02;;;;;;;;;3.00;3.00;;;;;20.90;46.02;101767.47;5036271;28;45362;-73
2022/11/27 05:39:28;;;;;;;;;4.00;1.00;;;;;20.97;46.27;101770.38;5036314;28;45377;-73
2022/11/27 05:41:53;;;;;;;;;3.67;2.00;;;;;20.98;46.08;101769.38;5036419;28;45386;-73
2022/11/27 05:44:18;;;;;;;;;2.00;2.00;;;;;20.98;45.90;101768.53;5035884;28;45385;-73
2022/11/27 05:46:44;;;;;;;;;1.67;1.67;;;;;20.98;45.99;101766.72;5036127;28;45477;-74
2022/11/27 05:49:11;;;;;;;;;1.00;1.00;;;;;20.99;45.95;101775.50;5036116;28;45295;-73
2022/11/27 05:51:37;;;;;;;;;3.00;3.00;;;;;20.98;46.07;101763.25;5036263;28;45315;-73
2022/11/27 05:54:02;;;;;;;;;3.00;3.00;;;;;20.97;46.28;101762.44;5035792;28;45303;-73
2022/11/27 05:56:27;;;;;;;;;2.00;2.00;;;;;20.97;46.38;101757.16;5035890;28;46218;-73
2022/11/27 05:58:53;;;;;;;;;2.67;2.67;;;;;20.96;46.32;101751.00;5017503;28;45340;-73
2022/11/27 06:01:18;;;;;;;;;3.00;2.00;;;;;20.96;46.09;101748.38;5036062;28;45323;-73
2022/11/27 06:03:44;;;;;;;;;2.33;2.33;;;;;20.95;46.34;101745.84;5036123;28;45188;-73
2022/11/27 06:06:16;;;;;;;;;3.00;2.00;;;;;20.96;45.84;101743.06;5035786;28;46386;-73
2022/11/27 06:08:42;;;;;;;;;2.67;2.67;;;;;20.98;45.94;101752.66;5035793;28;45415;-73
2022/11/27 06:11:10;;;;;;;;;1.67;1.67;;;;;20.96;45.92;101745.72;5035797;28;45367;-73
2022/11/27 06:13:36;;;;;;;;;3.00;3.00;;;;;20.96;45.73;101745.72;5035281;28;45496;-73
2022/11/27 06:16:16;;;;;;;;;2.00;2.00;;;;;20.92;46.13;101736.41;5035511;28;46144;-73
2022/11/27 06:18:42;;;;;;;;;2.00;2.00;;;;;20.98;45.89;101742.91;5035755;28;45454;-73
2022/11/27 06:21:09;;;;;;;;;2.00;2.00;;;;;20.87;45.74;101729.94;5035830;28;45493;-73
2022/11/27 06:23:36;;;;;;;;;2.33;2.00;;;;;20.99;46.20;101743.75;5035669;28;45261;-73
2022/11/27 06:26:24;;;;;;;;;2.33;2.00;;;;;20.97;45.85;101743.91;5035488;28;46242;-73
2022/11/27 06:28:50;;;;;;;;;1.33;1.00;;;;;20.98;45.74;101742.06;5035527;28;45377;-74
2022/11/27 06:31:21;;;;;;;;;2.67;2.33;;;;;20.94;45.79;101742.41;5035673;28;45417;-73
2022/11/27 06:33:47;;;;;;;;;2.33;1.00;;;;;20.98;45.76;101757.94;5035721;28;45239;-73
2022/11/27 06:36:14;;;;;;;;;3.67;2.00;;;;;20.98;45.86;101744.72;5035464;28;45382;-73
2022/11/27 06:38:39;;;;;;;;;4.00;2.33;;;;;20.89;45.96;101733.25;5035337;28;45398;-73
2022/11/27 06:41:07;;;;;;;;;2.67;1.67;;;;;20.97;46.14;101743.91;5035323;28;45725;-73
2022/11/27 06:43:33;;;;;;;;;2.00;2.00;;;;;20.92;45.87;101733.75;5035409;28;45390;-73
2022/11/27 06:46:00;;;;;;;;;2.00;2.00;;;;;20.98;45.84;101731.50;5035104;28;47077;-73
2022/11/27 06:48:26;;;;;;;;;2.33;2.33;;;;;20.93;46.27;101727.50;5035450;28;45437;-73
2022/11/27 06:50:51;;;;;;;;;2.00;2.00;;;;;20.95;45.71;101728.16;5035253;28;45371;-73
2022/11/27 06:53:17;;;;;;;;;4.00;2.00;;;;;20.92;46.07;101719.72;5013881;28;45406;-73
2022/11/27 06:55:43;;;;;;;;;1.33;1.33;;;;;20.96;46.05;101726.38;5014984;28;46084;-73
2022/11/27 06:58:08;;;;;;;;;3.00;3.00;;;;;20.93;45.87;101722.22;5015257;28;45491;-73
2022/11/27 07:00:33;;;;;;;;;2.33;2.33;;;;;20.96;45.97;101713.97;5015271;28;45452;-73
2022/11/27 07:02:58;;;;;;;;;2.00;2.00;;;;;20.92;45.69;101707.31;5015063;28;50135;-73
2022/11/27 07:05:24;;;;;;;;;1.00;1.00;;;;;20.96;46.21;101715.78;5015018;28;46989;-73
2022/11/27 07:07:49;;;;;;;;;2.00;1.33;;;;;20.96;46.23;101707.84;5015138;28;45385;-73
2022/11/27 07:10:15;;;;;;;;;2.00;2.00;;;;;20.91;45.70;101699.53;5014805;28;45362;-73
2022/11/27 07:12:40;;;;;;;;;3.67;2.00;;;;;20.95;45.95;101696.44;5015145;28;45425;-73
2022/11/27 07:15:06;;;;;;;;;2.00;2.00;;;;;20.90;45.85;101701.34;5032616;28;45347;-73
2022/11/27 07:17:32;;;;;;;;;2.33;2.33;;;;;20.88;45.96;101691.91;5034907;28;45407;-73
2022/11/27 07:19:57;;;;;;;;;3.67;3.67;;;;;20.93;46.11;101695.75;5034978;28;45378;-73
2022/11/27 07:22:23;;;;;;;;;1.00;1.00;;;;;20.94;45.95;101702.72;5035132;28;45359;-73
2022/11/27 07:24:48;;;;;;;;;1.33;1.33;;;;;20.94;45.94;101693.94;5034404;28;45428;-73
2022/11/27 07:27:13;;;;;;;;;3.00;2.33;;;;;20.88;45.90;101687.44;5034869;28;45244;-73
2022/11/27 07:29:38;;;;;;;;;1.67;1.00;;;;;20.84;46.18;101678.97;5034929;28;45323;-73
2022/11/27 07:32:04;;;;;;;;;2.00;1.67;;;;;20.92;45.95;101691.44;5034971;28;45406;-73
2022/11/27 07:34:29;;;;;;;;;2.00;2.00;;;;;20.93;45.83;101690.47;5034821;28;46344;-73
2022/11/27 07:36:54;;;;;;;;;3.00;2.00;;;;;20.93;45.67;101686.97;5036615;28;45439;-73
2022/11/27 07:39:20;;;;;;;;;2.00;2.00;;;;;20.92;45.64;101680.84;5037134;28;45328;-73
2022/11/27 07:41:45;;;;;;;;;1.67;1.67;;;;;20.93;45.79;101685.16;5038161;28;45303;-73
2022/11/27 07:44:10;;;;;;;;;1.00;1.00;;;;;20.91;45.98;101679.22;5037894;28;48438;-73
2022/11/27 07:46:36;;;;;;;;;2.67;2.00;;;;;20.82;45.87;101662.41;5038144;28;45226;-73
2022/11/27 07:49:02;;;;;;;;;4.00;2.00;;;;;20.91;45.97;101673.91;5038149;28;45407;-73
2022/11/27 07:51:28;;;;;;;;;1.00;1.00;;;;;20.91;46.00;101681.84;5038004;28;45185;-73
2022/11/27 07:53:54;;;;;;;;;2.00;1.33;;;;;20.91;45.70;101679.22;5037175;28;46077;-73
2022/11/27 07:56:20;;;;;;;;;2.67;2.67;;;;;20.92;45.63;101677.41;5037703;28;45415;-73
2022/11/27 07:58:46;;;;;;;;;2.00;2.00;;;;;20.87;45.73;101667.25;5037832;28;45368;-73
2022/11/27 08:01:13;;;;;;;;;2.00;2.00;;;;;20.91;46.19;101671.28;5037927;28;45367;-73
2022/11/27 08:03:39;;;;;;;;;1.67;1.67;;;;;20.92;45.76;101666.81;5037729;28;46809;-73
2022/11/27 08:06:14;;;;;;;;;3.00;3.00;;;;;20.90;45.50;101648.44;5037697;28;45297;-73
2022/11/27 08:08:40;;;;;;;;;2.00;2.00;;;;;20.93;45.64;101655.22;5037312;28;45495;-73
2022/11/27 08:11:05;;;;;;;;;4.00;3.00;;;;;20.83;46.07;101640.28;5037241;28;54402;-73
2022/11/27 08:13:30;;;;;;;;;3.00;2.00;;;;;20.92;45.78;101664.97;5037198;28;48078;-73
2022/11/27 08:15:58;;;;;;;;;2.00;2.00;;;;;20.88;45.54;101645.13;5037512;28;47406;-73
2022/11/27 08:18:23;;;;;;;;;1.67;1.67;;;;;20.92;45.55;101653.59;5037792;28;45388;-73
2022/11/27 08:20:49;;;;;;;;;2.33;2.00;;;;;20.93;45.56;101644.66;5037409;28;45581;-73
2022/11/27 08:23:14;;;;;;;;;1.67;1.67;;;;;20.91;45.79;101636.06;5037069;28;45420;-73
2022/11/27 08:25:39;;;;;;;;;2.67;2.67;;;;;20.82;45.50;101628.03;5037549;28;45399;-73
2022/11/27 08:28:05;;;;;;;;;4.00;3.00;;;;;20.93;45.96;101642.84;5037620;28;45385;-73
2022/11/27 08:30:30;;;;;;;;;2.00;2.00;;;;;20.93;45.49;101644.66;5037542;28;45354;-73
2022/11/27 08:32:55;;;;;;;;;3.00;2.00;;;;;20.93;45.70;101639.38;5037221;28;46051;-73
2022/11/27 08:35:21;;;;;;;;;2.00;2.00;;;;;20.91;45.88;101642.19;5037337;28;45344;-73
2022/11/27 08:37:46;;;;;;;;;1.00;1.00;;;;;20.83;45.69;101627.06;5037128;28;45426;-73
2022/11/27 08:40:12;;;;;;;;;2.00;2.00;;;;;20.92;45.88;101656.25;5037111;28;45294;-73
2022/11/27 08:42:37;;;;;;;;;4.00;2.00;;;;;20.92;46.17;101654.41;5037061;28;46095;-73
2022/11/27 08:45:03;;;;;;;;;3.00;3.00;;;;;20.92;45.77;101645.66;5037183;28;45312;-73
2022/11/27 08:47:28;;;;;;;;;3.00;2.00;;;;;20.91;45.59;101654.56;5036247;28;45389;-73
2022/11/27 08:49:54;;;;;;;;;2.00;2.00;;;;;20.91;45.92;101652.75;5037002;28;45410;-73
2022/11/27 08:52:20;;;;;;;;;2.00;2.00;;;;;20.91;45.54;101650.13;5036536;28;47584;-73
2022/11/27 08:54:46;;;;;;;;;2.00;2.00;;;;;20.85;45.82;101643.63;5036131;28;45421;-73
2022/11/27 08:57:11;;;;;;;;;2.33;2.33;;;;;20.92;45.80;101645.66;5037015;28;45426;-73
2022/11/27 08:59:36;;;;;;;;;1.33;1.00;;;;;20.91;45.87;101650.13;5036817;28;45438;-73
2022/11/27 09:02:02;;;;;;;;;2.67;2.67;;;;;20.92;45.93;101637.72;5036680;28;47395;-73
2022/11/27 09:04:27;;;;;;;;;1.00;1.00;;;;;20.92;45.70;101653.59;5036900;28;45320;-73
2022/11/27 09:06:53;;;;;;;;;6.00;3.00;;;;;20.85;45.62;101642.78;5036581;28;45261;-73
2022/11/27 09:09:18;;;;;;;;;1.00;1.00;;;;;20.91;45.62;101642.19;5036636;28;48616;-73
2022/11/27 09:11:43;;;;;;;;;2.00;2.00;;;;;20.91;45.86;101643.97;5036511;28;46461;-73
2022/11/27 09:14:10;;;;;;;;;3.00;2.00;;;;;20.90;45.73;101647.59;5036550;28;45450;-73
2022/11/27 09:16:35;;;;;;;;;2.00;2.00;;;;;20.90;46.04;101637.84;5036840;28;45382;-73
2022/11/27 09:19:01;;;;;;;;;1.33;1.33;;;;;20.79;45.62;101623.03;5036701;28;45409;-73
2022/11/27 09:21:29;;;;;;;;;2.00;2.00;;;;;20.90;45.74;101631.72;5036056;28;46315;-73
2022/11/27 09:23:57;;;;;;;;;4.00;2.00;;;;;20.90;45.76;101615.84;5036523;28;45426;-73
2022/11/27 09:26:24;;;;;;;;;3.33;2.00;;;;;20.89;45.86;101615.06;5036538;28;45353;-73
2022/11/27 09:28:50;;;;;;;;;1.67;1.67;;;;;20.88;45.90;101601.97;5036591;28;45338;-73
2022/11/27 09:31:16;;;;;;;;;2.33;2.00;;;;;20.80;46.02;101590.34;5036083;28;46213;-73
2022/11/27 09:33:42;;;;;;;;;1.00;1.00;;;;;20.81;45.76;101589.38;5036367;28;45355;-73
2022/11/27 09:36:11;;;;;;;;;1.00;1.00;;;;;20.89;45.97;101601.00;5036252;28;45371;-73
2022/11/27 09:38:36;;;;;;;;;1.00;1.00;;;;;20.79;45.85;101585.22;5036369;28;45362;-73
2022/11/27 09:41:05;;;;;;;;;1.00;1.00;;;;;20.88;45.88;101608.09;5036158;28;45452;-73
2022/11/27 09:43:39;;;;;;;;;1.33;1.33;;;;;20.85;45.70;101606.56;5036181;28;45390;-73
2022/11/27 09:46:10;;;;;;;;;3.00;3.00;;;;;20.89;45.99;101614.22;5036207;28;45331;-72
2022/11/27 09:48:40;;;;;;;;;2.33;2.33;;;;;20.78;45.79;101594.97;5036158;28;45480;-73
2022/11/27 09:51:13;;;;;;;;;2.00;2.00;;;;;20.84;45.45;101612.84;5035639;28;46332;-73
2022/11/27 09:53:50;;;;;;;;;3.33;2.33;;;;;20.89;45.59;101624.78;5035801;28;45346;-73
2022/11/27 09:56:17;;;;;;;;;1.00;1.00;;;;;20.89;45.72;101616.84;5036059;28;45274;-73
2022/11/27 09:59:07;;;;;;;;;2.00;2.00;;;;;20.88;45.90;101610.72;5035479;28;45249;-73
2022/11/27 10:01:33;;;;;;;;;2.33;2.00;;;;;20.88;45.57;101626.59;5035673;28;47193;-73
2022/11/27 10:04:01;;;;;;;;;1.33;1.33;;;;;20.88;46.03;101616.03;5035398;28;45664;-73
2022/11/27 10:06:37;;;;;;;;;3.33;1.00;;;;;20.81;45.38;101605.25;5036091;28;45347;-73
2022/11/27 10:09:11;;;;;;;;;2.00;2.00;;;;;20.90;45.59;101616.69;5035937;28;45330;-73
2022/11/27 10:12:01;;;;;;;;;3.33;2.67;;;;;20.91;45.64;101617.53;5017660;28;46137;-73
2022/11/27 10:14:52;;;;;;;;;2.00;2.00;;;;;20.88;45.48;101615.19;5034901;28;45312;-77
2022/11/27 10:17:28;;;;;;;;;2.00;2.00;;;;;20.91;45.64;101623.66;5035692;28;45283;-74
2022/11/27 10:20:22;;;;;;;;;3.00;3.00;;;;;20.90;45.67;101619.34;5035046;28;45390;-73
2022/11/27 10:22:55;;;;;;;;;2.00;2.00;;;;;20.91;45.89;101612.25;5035464;28;46177;-73
2022/11/27 10:25:31;;;;;;;;;3.00;1.33;;;;;20.85;45.50;101600.47;5035441;28;45373;-73
2022/11/27 10:28:16;;;;;;;;;2.00;2.00;;;;;20.85;45.94;101589.88;5035370;28;45374;-76
2022/11/27 10:30:53;;;;;;;;;2.00;2.00;;;;;20.91;45.80;101599.00;5035508;28;45423;-73
2022/11/27 10:33:26;;;;;;;;;3.33;2.00;;;;;20.87;45.79;101593.19;5034700;28;47107;-74
2022/11/27 10:35:52;;;;;;;;;2.00;2.00;;;;;20.89;45.83;101585.13;5034097;28;45438;-74
2022/11/27 10:38:22;;;;;;;;;3.33;2.00;;;;;20.82;46.02;101577.78;5035481;28;45369;-73
2022/11/27 10:41:02;;;;;;;;;2.00;2.00;;;;;20.86;46.41;101578.31;5035363;28;45291;-76
2022/11/27 10:43:28;;;;;;;;;1.00;1.00;;;;;20.85;46.52;101582.78;5035004;28;45444;-76
2022/11/27 10:45:58;;;;;;;;;2.00;1.00;;;;;20.87;46.68;101579.16;5033607;28;45394;-75
2022/11/27 10:48:23;;;;;;;;;1.00;1.00;;;;;20.88;47.09;101573.69;5035339;28;45381;-76
2022/11/27 10:50:50;;;;;;;;;2.00;2.00;;;;;20.89;47.24;101558.66;5035193;28;45506;-76
2022/11/27 10:53:30;;;;;;;;;2.33;1.33;;;;;20.89;47.10;101566.59;5034839;28;46143;-76
2022/11/27 10:56:07;;;;;;;;;2.00;2.00;;;;;20.90;47.25;101566.44;5035235;28;45483;-76
2022/11/27 10:58:40;;;;;;;;;2.00;2.00;;;;;20.91;47.41;101556.69;5035238;28;45405;-76
2022/11/27 11:01:16;;;;;;;;;2.00;2.00;;;;;20.92;47.55;101553.06;5017269;28;45309;-76
2022/11/27 11:03:41;;;;;;;;;3.00;2.00;;;;;20.93;47.76;101549.44;5034676;28;46226;-77
2022/11/27 11:06:23;;;;;;;;;2.00;2.00;;;;;20.89;47.66;101540.16;5035087;28;45367;-76
2022/11/27 11:09:31;;;;;;;;;1.00;1.00;;;;;20.94;47.65;101543.16;5035314;28;45394;-75
2022/11/27 11:12:19;;;;;;;;;6.00;2.00;;;;;20.94;47.81;101533.41;4936486;28;45493;-76
2022/11/27 11:14:55;;;;;;;;;2.33;1.00;;;;;20.95;47.88;101534.22;4951994;28;46298;-75
2022/11/27 11:17:29;;;;;;;;;3.33;2.67;;;;;20.95;47.99;101529.75;4956973;28;45373;-79
2022/11/27 11:19:54;;;;;;;;;2.33;1.00;;;;;20.96;48.08;101526.16;4957346;28;45465;-75
2022/11/27 11:22:20;;;;;;;;;4.00;2.33;;;;;20.97;48.06;101524.34;4957316;28;45429;-75
2022/11/27 11:24:48;;;;;;;;;3.00;3.00;;;;;20.84;48.23;101493.00;4939651;28;46348;-74
2022/11/27 11:27:27;;;;;;;;;1.00;1.00;;;;;20.96;48.03;101506.78;4937575;28;45436;-76
2022/11/27 11:30:01;;;;;;;;;1.33;1.33;;;;;20.99;47.80;101503.84;4938015;28;45518;-77
2022/11/27 11:32:28;;;;;;;;;2.00;1.00;;;;;20.99;48.03;101500.34;4937165;28;45605;-73